Date,TemperatureHighF,TemperatureAvgF,TemperatureLowF,DewpointHighF,DewpointAvgF,DewpointLowF,HumidityHigh,HumidityAvg,HumidityLow,PressureMaxIn,PressureMinIn,WindSpeedMaxMPH,WindSpeedAvgMPH,GustSpeedMaxMPH,PrecipitationSumIn
2014-1-1,20.7,16.9,14.5,13.8,11.6,9.1,91,80,68,28.99,28.85,7,2,12,0.00
2014-1-2,14.6,10.4,0.8,12.5,8.3,-1.5,92,91,89,28.88,28.51,9,4,13,0.00
2014-1-3,6.3,-0.8,-9.0,4.0,-3.4,-12.1,90,89,86,29.01,28.53,6,3,13,0.00
2014-1-4,25.1,15.4,-1.3,14.9,8.2,-4.2,88,73,63,28.96,28.71,19,12,28,0.00
2014-1-5,45.1,30.8,19.8,43.8,24.6,13.5,95,78,63,28.81,28.18,16,6,26,0.08
2014-1-6,48.6,28.5,3.5,47.0,23.6,-4.3,96,82,64,28.42,27.96,19,8,35,0.02
2014-1-7,4.4,2.0,-2.0,-2.1,-5.7,-9.4,75,70,62,28.86,28.42,9,6,27,0.00
2014-1-8,18.0,11.9,3.7,11.7,5.1,-2.3,82,74,65,29.04,28.86,9,5,16,0.00
2014-1-9,24.5,19.2,14.5,17.4,14.0,10.8,90,80,68,29.24,29.04,12,2,17,0.00
2014-1-10,36.5,30.2,22.7,35.2,28.2,17.4,95,92,74,29.04,28.69,13,9,20,0.00
2014-1-11,48.5,43.8,35.9,47.4,41.9,33.8,96,93,77,28.68,27.96,16,9,26,0.04
2014-1-12,38.1,33.1,29.6,33.5,30.0,26.5,93,88,83,28.64,28.12,6,3,16,0.02
2014-1-13,46.7,39.2,30.5,38.0,31.7,27.0,88,75,58,28.63,28.37,16,10,25,0.04
2014-1-14,42.7,37.6,29.2,40.3,36.0,27.9,96,94,84,28.51,28.35,11,2,21,0.01
2014-1-15,38.5,32.0,26.1,35.5,29.6,23.4,96,91,83,28.63,28.48,11,4,19,0.03
2014-1-16,31.5,27.4,22.4,24.0,21.7,18.3,90,79,67,28.63,28.49,6,2,15,0.33
2014-1-17,36.6,30.6,25.1,28.1,24.8,20.8,91,79,64,28.51,28.46,13,6,24,0.03
2014-1-18,29.6,22.9,17.3,27.7,21.3,15.1,95,94,91,28.51,28.40,5,2,14,0.00
2014-1-19,30.3,22.4,14.4,25.0,18.3,12.7,93,85,72,28.48,28.15,13,6,24,0.00
2014-1-20,30.8,22.7,10.1,28.3,19.3,6.7,94,87,80,28.61,28.16,7,3,13,0.00
2014-1-21,10.0,2.3,-6.6,6.9,-0.9,-9.5,90,86,76,28.69,28.60,6,3,12,0.00
2014-1-22,3.5,-3.7,-8.8,0.3,-6.8,-11.9,89,86,80,28.66,28.58,5,2,13,0.00
2014-1-23,12.1,5.4,0.7,7.9,2.5,-2.0,90,87,76,28.89,28.62,4,1,10,0.00
2014-1-24,15.9,9.1,-0.1,4.8,1.9,-3.2,89,74,56,28.93,28.40,16,8,29,0.00
2014-1-25,23.0,18.0,9.4,20.5,11.1,2.0,94,75,52,28.39,27.93,16,11,26,0.00
2014-1-26,22.4,11.2,5.6,19.1,7.3,1.7,90,84,69,28.41,28.20,15,7,22,0.00
2014-1-27,30.4,17.3,5.6,26.1,11.3,-1.1,94,77,63,28.72,28.00,19,7,27,0.00
2014-1-28,10.0,4.3,-0.5,-0.1,-4.3,-8.0,80,67,57,28.93,28.72,8,4,23,0.00
2014-1-29,16.1,7.4,-2.3,4.9,-1.5,-10.0,78,67,54,28.87,28.64,9,4,18,0.00
2014-1-30,24.8,14.7,2.8,11.4,5.9,-2.5,84,68,54,28.95,28.56,21,8,31,0.00
2014-1-31,32.9,26.7,21.2,24.2,17.4,9.7,85,68,60,28.82,28.59,15,5,30,0.00
2014-2-1,39.0,32.7,23.5,29.8,25.7,19.9,88,76,62,28.86,28.53,20,8,30,0.05
2014-2-2,38.9,32.0,26.1,33.5,28.9,24.6,95,89,69,28.81,28.51,13,3,20,0.11
2014-2-3,26.1,21.0,6.0,24.6,17.6,3.2,94,87,80,28.97,28.79,5,1,10,0.00
2014-2-4,24.2,19.2,5.8,18.1,14.0,3.2,93,81,66,29.09,28.82,7,0,9,0.00
2014-2-5,24.7,20.6,13.2,23.2,18.8,11.6,95,93,76,28.89,28.33,9,4,18,0.00
2014-2-6,18.8,9.2,-4.0,16.1,7.1,-6.5,93,91,87,28.93,28.79,6,1,14,0.07
2014-2-7,21.6,12.3,-0.8,14.0,8.0,-5.5,92,83,67,28.88,28.79,5,1,8,0.00
2014-2-8,16.6,6.5,-8.6,9.9,1.3,-12.7,89,79,64,28.93,28.79,4,0,8,0.00
2014-2-9,18.7,13.2,2.6,17.3,10.7,0.1,94,90,79,28.81,28.56,8,2,13,0.00
2014-2-10,20.0,15.2,11.5,15.6,11.9,7.6,93,87,75,28.90,28.66,5,1,15,0.00
2014-2-11,16.2,11.3,3.0,12.7,7.8,-0.7,90,86,79,29.10,28.89,6,1,13,0.00
2014-2-12,22.7,10.3,-4.5,10.9,3.3,-7.1,91,75,54,29.10,28.82,15,5,22,0.00
2014-2-13,24.6,20.6,15.0,23.1,17.5,9.0,95,88,71,28.82,28.05,13,4,18,0.00
2014-2-14,29.7,25.5,20.3,28.0,23.5,19.1,96,92,88,28.38,28.01,8,3,18,0.01
2014-2-15,28.3,23.2,14.6,25.4,21.2,12.7,94,92,86,28.55,28.38,8,2,17,0.00
2014-2-16,16.1,13.6,10.8,13.5,11.4,8.9,93,91,87,28.82,28.54,5,2,16,0.00
2014-2-17,23.3,11.7,-3.5,11.8,5.9,-6.2,92,78,59,29.06,28.68,14,2,17,0.00
2014-2-18,31.1,25.2,18.2,26.9,20.5,11.3,92,83,59,28.69,28.50,29,8,49,0.00
2014-2-19,40.0,33.6,23.4,37.2,29.9,19.6,94,86,74,28.73,28.28,17,6,25,0.03
2014-2-20,40.9,32.2,23.2,33.6,28.6,20.8,95,87,63,28.82,28.49,13,3,24,0.07
2014-2-21,44.6,39.4,35.7,42.2,34.6,25.9,96,83,62,28.50,28.25,17,7,29,0.04
2014-2-22,44.5,38.6,32.6,31.8,24.7,19.2,78,58,40,28.61,28.46,14,7,25,0.09
2014-2-23,42.8,36.0,24.9,32.3,26.7,16.5,83,70,52,28.62,28.52,8,3,16,0.02
2014-2-24,25.1,20.7,16.2,19.0,14.5,11.4,89,77,66,28.70,28.53,7,4,19,0.00
2014-2-25,19.0,16.8,15.5,13.8,11.7,9.2,88,80,69,28.68,28.52,6,2,14,0.00
2014-2-26,17.8,11.6,2.2,13.1,3.9,-4.2,88,71,57,28.58,28.39,7,3,21,0.00
2014-2-27,20.1,11.0,4.4,12.0,3.2,-4.1,88,70,56,28.70,28.18,12,7,24,0.00
2014-2-28,13.9,8.7,2.6,5.2,1.0,-2.3,85,71,58,28.98,28.70,8,2,14,0.00
2014-3-1,31.8,22.3,12.3,23.8,10.9,0.3,88,61,56,28.89,28.70,14,9,22,0.00
2014-3-2,26.7,16.1,9.4,23.9,12.9,4.2,92,87,79,28.83,28.72,8,3,17,0.03
2014-3-3,10.5,6.5,-0.4,5.7,2.5,-4.6,91,83,74,28.99,28.77,6,2,12,0.00
2014-3-4,18.2,9.1,-3.2,13.2,4.6,-6.8,89,82,61,28.98,28.83,8,2,13,0.00
2014-3-5,20.6,15.5,5.8,15.6,11.5,-0.1,89,84,73,29.16,28.82,8,3,14,0.00
2014-3-6,26.4,14.1,-5.1,9.2,3.8,-10.2,85,65,43,29.23,28.96,11,3,18,0.01
2014-3-7,39.4,27.6,17.5,29.4,20.0,6.6,82,73,55,28.97,28.56,15,8,24,0.07
2014-3-8,37.1,31.8,27.0,30.9,27.8,24.7,94,85,76,28.64,28.50,6,2,12,0.10
2014-3-9,29.6,25.5,20.3,26.1,20.3,17.5,94,81,67,28.74,28.47,7,2,14,0.01
2014-3-10,46.0,36.8,29.1,37.5,29.9,19.7,88,76,65,28.47,28.19,9,2,17,0.05
2014-3-11,51.0,43.0,36.2,38.8,36.2,32.7,91,77,60,28.40,28.21,3,0,11,0.01
2014-3-12,39.7,28.0,11.1,37.1,26.5,9.5,96,94,89,28.36,27.87,12,6,22,0.37
2014-3-13,13.1,9.9,6.3,11.5,8.1,4.2,93,92,91,28.71,28.23,10,6,22,0.00
2014-3-14,43.8,28.3,9.3,30.9,21.6,7.4,92,77,59,28.70,28.30,19,11,28,0.10
2014-3-15,40.9,35.7,23.2,37.8,30.1,16.1,91,80,63,28.76,28.29,15,5,24,0.04
2014-3-16,22.9,16.4,7.6,18.3,10.4,2.7,91,77,67,28.93,28.74,10,4,19,0.00
2014-3-17,25.0,15.6,6.7,13.1,7.6,3.8,90,72,52,28.83,28.68,6,2,11,0.00
2014-3-18,41.0,28.9,13.9,26.7,15.8,5.8,71,58,45,28.82,28.71,11,4,21,0.00
2014-3-19,39.5,35.2,30.5,35.2,26.1,16.7,94,70,50,28.80,28.40,23,13,34,0.01
2014-3-20,38.3,35.5,30.0,37.0,31.9,27.3,95,87,76,28.56,28.34,14,5,24,0.01
2014-3-21,33.8,29.5,26.7,27.3,24.4,21.7,89,81,74,28.71,28.55,7,3,17,0.00
2014-3-22,41.8,34.8,29.8,37.6,28.9,24.7,87,79,64,28.71,28.28,21,7,33,0.00
2014-3-23,31.2,22.1,16.4,26.9,17.1,9.2,90,81,71,28.85,28.67,11,5,17,0.00
2014-3-24,23.4,18.6,13.6,16.1,12.7,8.6,89,78,63,28.87,28.73,7,2,13,0.00
2014-3-25,34.6,24.5,14.8,22.9,16.3,12.5,91,73,44,28.74,28.50,12,3,21,0.00
2014-3-26,25.5,19.4,16.1,22.2,13.0,8.0,93,76,59,28.89,28.58,12,6,27,0.00
2014-3-27,39.2,26.6,11.7,25.2,16.4,7.6,87,67,44,28.96,28.68,15,7,24,0.00
2014-3-28,51.4,41.7,35.2,45.3,36.5,25.1,93,82,60,28.81,28.44,15,9,24,0.29
2014-3-29,39.3,35.7,33.2,36.3,34.0,31.7,95,93,88,28.89,28.48,12,3,19,0.08
2014-3-30,35.2,30.9,29.2,33.9,29.7,28.1,96,95,93,28.64,28.43,12,6,22,0.06
2014-3-31,39.5,33.7,29.1,34.6,30.1,26.5,93,87,77,28.84,28.63,8,5,22,0.75
2014-4-1,55.3,40.6,27.1,42.3,33.8,25.3,94,78,60,28.83,28.54,8,2,13,0.08
2014-4-2,50.9,41.8,34.2,39.0,34.9,30.3,88,77,59,28.84,28.61,5,1,10,0.00
2014-4-3,41.4,36.4,27.9,33.6,30.4,25.6,91,79,70,28.86,28.69,7,1,9,0.00
2014-4-4,46.4,41.4,36.8,43.0,38.5,31.1,95,90,76,28.68,28.25,22,10,33,0.15
2014-4-5,42.1,35.7,31.2,40.7,31.4,27.0,95,84,75,28.78,28.31,14,5,22,0.15
2014-4-6,48.8,37.6,28.5,33.9,28.1,25.1,88,70,46,28.86,28.77,3,1,11,0.00
2014-4-7,46.1,40.2,37.0,41.1,31.7,26.5,93,73,47,28.80,28.16,15,6,28,0.49
2014-4-8,51.6,43.6,39.7,47.8,41.2,36.3,95,91,83,28.37,28.00,16,6,27,0.20
2014-4-9,43.7,37.6,31.0,37.1,30.0,22.4,95,76,45,28.68,28.35,8,2,16,0.00
2014-4-10,64.7,48.9,30.7,41.5,34.1,24.7,81,59,38,28.71,28.46,22,10,36,0.00
2014-4-11,57.9,49.0,39.7,49.7,44.1,38.1,94,84,51,28.73,28.51,10,1,20,0.10
2014-4-12,64.7,50.7,36.0,47.1,41.4,34.7,95,74,43,28.87,28.73,5,1,11,0.00
2014-4-13,78.3,64.9,53.2,57.4,50.5,40.4,80,61,40,28.74,28.49,17,9,29,0.00
2014-4-14,73.8,65.2,59.2,59.0,56.6,52.6,92,74,58,28.54,28.31,20,11,29,0.36
2014-4-15,59.9,41.3,24.3,57.6,39.4,22.8,95,93,80,28.73,28.19,17,7,25,0.64
2014-4-16,33.5,27.1,21.7,23.7,21.3,18.8,94,79,60,29.19,28.72,8,3,20,0.01
2014-4-17,50.9,38.2,27.1,31.9,25.3,16.7,78,60,42,29.25,29.09,14,6,21,0.02
2014-4-18,56.6,44.7,33.8,41.9,35.6,28.1,80,71,55,29.12,28.83,14,8,23,0.00
2014-4-19,48.5,41.4,34.5,41.0,34.4,29.0,90,77,56,29.08,28.90,7,2,15,0.00
2014-4-20,63.8,47.4,30.0,39.3,33.0,27.4,91,61,29,29.10,28.86,10,4,17,0.00
2014-4-21,71.3,57.6,42.8,44.0,39.7,35.2,75,53,30,28.86,28.46,9,5,15,0.00
2014-4-22,59.9,53.2,41.8,55.3,46.7,38.5,94,80,52,28.46,28.22,8,3,18,0.24
2014-4-23,41.8,38.0,35.7,38.5,35.2,27.2,95,90,70,28.61,28.30,9,4,19,0.27
2014-4-24,47.2,38.4,32.1,29.7,27.3,24.7,84,65,43,28.75,28.61,11,4,21,0.01
2014-4-25,61.3,47.7,32.1,44.6,33.5,25.9,94,61,36,28.70,28.33,15,5,25,0.20
2014-4-26,51.7,43.7,40.2,45.6,40.8,37.6,95,89,79,28.63,28.36,10,3,18,0.11
2014-4-27,46.8,41.1,36.7,39.7,37.2,33.9,94,86,72,28.86,28.62,6,2,14,0.03
2014-4-28,56.2,45.8,32.6,42.5,36.8,29.7,92,72,55,28.86,28.68,5,2,14,0.00
2014-4-29,51.8,46.1,41.1,42.8,40.5,37.7,94,82,59,28.88,28.68,14,10,33,0.28
2014-4-30,50.4,45.6,40.6,48.7,43.6,38.7,94,93,90,28.88,28.50,15,10,30,0.19
2014-5-1,59.2,52.7,42.8,55.3,49.0,38.6,95,88,67,28.52,28.41,9,3,22,0.21
2014-5-2,54.4,48.5,42.7,46.7,43.1,38.8,90,82,64,28.53,28.40,7,1,18,0.04
2014-5-3,56.6,50.2,45.4,47.9,44.8,43.0,94,82,65,28.51,28.36,14,5,20,0.08
2014-5-4,53.1,46.3,42.1,43.5,39.4,36.8,92,77,56,28.60,28.37,8,4,21,0.04
2014-5-5,54.1,45.9,38.4,39.7,36.8,31.8,93,73,45,28.69,28.60,8,3,15,0.00
2014-5-6,54.8,47.5,39.4,41.4,37.7,35.0,87,70,50,28.80,28.59,7,2,17,0.00
2014-5-7,63.6,49.6,33.7,43.5,37.0,31.3,92,65,33,28.92,28.79,6,1,9,0.00
2014-5-8,72.9,60.9,49.2,60.4,52.7,42.0,92,75,61,28.81,28.70,7,2,11,0.00
2014-5-9,80.4,68.4,60.0,66.1,60.7,56.7,93,78,53,28.73,28.53,14,6,22,0.22
2014-5-10,72.5,64.6,55.5,61.1,54.9,37.5,95,73,41,28.63,28.51,11,4,19,0.53
2014-5-11,69.8,57.6,45.4,51.7,44.4,40.4,88,64,39,28.80,28.63,3,1,10,0.00
2014-5-12,79.9,65.3,50.2,63.9,54.5,45.3,91,70,50,28.79,28.72,8,1,21,0.00
2014-5-13,82.0,70.7,61.9,67.4,63.8,59.2,94,80,58,28.84,28.70,8,2,16,0.21
2014-5-14,80.0,66.7,55.1,67.2,59.7,51.1,94,79,61,28.85,28.74,12,6,19,0.41
2014-5-15,76.0,69.3,63.1,66.5,63.4,60.2,94,82,59,28.79,28.59,21,12,33,0.02
2014-5-16,65.6,51.5,44.6,62.9,49.8,43.3,95,94,86,28.66,28.49,10,2,23,0.02
2014-5-17,54.1,46.2,41.0,43.3,41.0,38.4,95,83,64,28.83,28.61,4,0,10,0.02
2014-5-18,57.6,48.0,39.7,45.1,40.6,35.8,94,78,46,28.94,28.83,4,1,12,0.01
2014-5-19,65.4,52.4,38.8,48.8,43.3,36.2,92,73,48,28.91,28.82,6,1,16,0.01
2014-5-20,68.8,57.0,42.6,54.4,46.9,40.7,94,72,40,28.87,28.71,2,0,9,0.02
2014-5-21,64.0,60.0,55.5,60.5,55.3,50.7,94,84,70,28.70,28.53,13,4,21,0.00
2014-5-22,73.1,63.0,55.0,64.2,58.0,50.4,95,84,63,28.59,28.47,6,1,17,0.01
2014-5-23,55.1,52.9,50.5,52.0,50.6,48.8,95,92,85,28.72,28.57,4,1,11,0.01
2014-5-24,68.1,57.0,51.0,58.1,52.7,48.8,95,86,64,28.79,28.70,4,1,13,0.00
2014-5-25,74.1,61.5,46.2,54.9,50.6,44.4,95,70,46,28.82,28.74,4,1,13,0.00
2014-5-26,80.6,69.7,57.6,60.1,55.0,49.2,78,60,46,28.75,28.62,6,1,15,0.00
2014-5-27,81.0,70.7,62.0,67.7,61.9,53.6,92,74,59,28.62,28.48,5,1,11,0.00
2014-5-28,68.9,57.0,51.8,65.4,54.5,50.4,95,92,85,28.81,28.51,4,1,12,0.00
2014-5-29,60.9,55.9,52.0,55.4,52.3,48.7,94,88,81,28.85,28.78,8,3,14,0.00
2014-5-30,70.2,59.0,45.5,57.6,52.1,44.2,95,79,56,28.85,28.78,7,1,16,0.00
2014-5-31,68.6,60.2,50.8,52.9,48.5,44.3,90,67,45,28.95,28.84,7,2,17,0.00
2014-6-1,75.2,63.5,48.6,54.3,50.4,44.8,89,64,44,29.00,28.83,10,4,20,0.00
2014-6-2,83.5,71.0,58.7,67.6,60.6,52.4,83,71,53,28.85,28.64,9,4,18,0.00
2014-6-3,79.1,71.9,62.2,69.9,66.0,56.3,93,82,64,28.67,28.48,9,3,16,0.12
2014-6-4,70.2,62.0,48.6,58.3,54.3,46.5,94,77,63,28.60,28.47,5,1,15,0.01
2014-6-5,64.1,57.2,48.7,54.6,50.7,46.2,92,79,66,28.57,28.43,6,1,13,0.00
2014-6-6,69.5,59.0,51.2,55.4,52.1,48.9,93,79,54,28.70,28.57,5,2,17,0.00
2014-6-7,76.0,64.4,50.3,58.2,53.3,47.9,94,70,50,28.76,28.65,4,1,13,0.00
2014-6-8,79.1,67.3,54.2,62.4,56.1,49.5,94,69,49,28.67,28.51,13,2,22,0.11
2014-6-9,65.9,63.6,61.2,63.4,61.7,58.6,95,93,90,28.67,28.56,8,1,14,0.07
2014-6-10,74.3,68.0,63.1,68.4,64.7,61.6,95,89,79,28.68,28.61,4,1,10,0.01
2014-6-11,68.4,65.3,61.8,65.7,63.3,59.5,95,93,90,28.68,28.62,15,6,24,0.00
2014-6-12,67.3,64.7,61.7,65.2,62.9,60.2,95,94,92,28.66,28.55,13,10,26,0.00
2014-6-13,77.5,67.6,61.8,70.5,65.0,58.6,95,92,75,28.55,28.41,8,3,18,0.01
2014-6-14,61.2,55.1,49.5,58.2,51.1,47.2,93,87,79,28.78,28.56,4,1,12,0.01
2014-6-15,70.3,59.9,51.9,58.0,53.9,50.3,95,82,61,28.89,28.78,2,0,9,0.00
2014-6-16,81.4,68.8,53.3,70.1,60.4,51.0,93,76,48,28.83,28.68,7,2,13,0.00
2014-6-17,83.5,73.7,62.4,71.9,66.8,60.7,95,80,58,28.79,28.50,14,4,21,0.00
2014-6-18,74.6,68.8,64.2,68.1,64.9,61.9,94,88,77,28.74,28.55,6,1,14,0.00
2014-6-19,72.1,65.8,55.4,63.9,55.9,42.2,95,74,35,28.81,28.69,6,2,16,0.00
2014-6-20,68.8,59.9,49.4,53.1,48.2,43.5,92,67,42,28.81,28.70,5,1,14,0.00
2014-6-21,72.3,61.5,50.3,54.5,49.9,46.6,89,67,48,28.72,28.62,5,1,13,0.00
2014-6-22,75.8,64.5,51.6,56.5,52.0,48.3,91,66,44,28.71,28.65,4,1,12,0.00
2014-6-23,78.8,69.7,55.8,66.5,59.8,50.0,84,71,60,28.76,28.69,12,5,21,0.00
2014-6-24,79.6,70.9,66.8,72.4,65.8,61.9,93,84,78,28.73,28.59,13,8,29,0.00
2014-6-25,71.3,68.6,66.1,69.2,66.8,64.6,95,94,92,28.64,28.56,11,1,12,0.12
2014-6-26,75.5,68.1,63.1,67.9,64.0,61.6,96,88,69,28.74,28.58,5,2,15,0.13
2014-6-27,79.3,69.6,58.3,65.2,60.2,56.4,95,74,46,28.89,28.74,5,1,11,0.07
2014-6-28,81.4,72.6,64.1,69.9,63.4,55.6,85,74,57,28.95,28.87,9,3,15,0.02
2014-6-29,83.4,73.3,65.6,71.8,66.2,60.9,88,79,65,28.90,28.74,12,5,19,0.01
2014-6-30,83.8,75.1,66.8,73.2,68.5,62.9,89,80,64,28.75,28.58,9,4,16,0.00
2014-7-1,86.5,77.2,70.4,76.3,71.6,68.0,93,83,66,28.60,28.44,16,6,32,0.00
2014-7-2,82.8,76.6,69.8,72.0,69.6,67.1,93,80,62,28.64,28.48,7,2,14,0.00
2014-7-3,79.3,70.6,66.1,71.1,67.0,64.3,94,89,74,28.68,28.59,7,1,10,0.34
2014-7-7,75.2,71.5,66.1,70.8,68.3,63.2,93,90,84,28.47,28.40,11,5,18,0.05
2014-7-8,81.6,72.4,66.4,73.1,68.2,63.7,94,87,74,28.47,28.23,19,5,32,0.01
2014-7-9,75.2,66.4,59.3,65.7,61.5,56.3,92,85,66,28.71,28.41,9,2,17,0.00
2014-7-10,72.2,62.5,54.4,58.5,54.9,51.7,95,77,59,28.89,28.71,4,1,13,0.00
2014-7-11,77.3,64.6,51.6,63.3,56.0,49.4,94,76,53,28.94,28.87,4,0,9,0.00
2014-7-12,83.1,72.8,64.8,70.6,64.1,58.3,85,75,56,28.90,28.74,9,2,15,0.00
2014-7-13,74.3,70.8,67.3,72.2,68.2,64.6,94,92,85,28.74,28.51,13,5,21,0.04
2014-7-14,78.0,69.9,65.1,70.6,66.9,63.3,95,90,73,28.61,28.51,7,1,13,0.33
2014-7-15,76.0,68.5,61.0,70.0,65.1,55.2,95,90,71,28.52,28.41,10,3,16,0.30
2014-7-16,70.9,63.0,53.3,61.3,57.4,51.4,94,83,66,28.66,28.51,4,0,11,0.02
2014-7-17,67.9,60.1,51.6,60.2,56.2,49.9,95,87,71,28.83,28.65,4,0,11,0.00
2014-7-18,73.9,62.9,51.6,62.0,55.4,49.9,95,79,50,28.94,28.83,3,0,7,0.00
2014-7-19,73.7,67.0,57.1,63.7,59.1,54.2,92,76,53,28.93,28.84,9,1,16,0.00
2014-7-20,76.4,68.5,62.2,64.3,61.0,58.8,91,78,57,28.86,28.78,7,1,15,0.01
2014-7-21,79.3,71.1,64.4,71.2,65.8,60.8,94,84,69,28.87,28.80,8,2,14,0.00
2014-7-22,83.0,74.2,65.7,73.4,69.2,63.9,95,85,69,28.85,28.68,7,2,12,0.00
2014-7-23,82.7,71.5,63.5,74.5,68.3,61.4,94,90,73,28.69,28.53,8,2,16,0.00
2014-7-24,66.7,61.6,52.4,61.6,55.1,50.1,94,80,62,28.72,28.63,5,1,14,0.06
2014-7-25,72.8,62.0,49.6,61.3,55.4,48.2,95,80,60,28.77,28.66,4,1,10,0.00
2014-7-26,75.0,66.0,54.5,63.6,59.2,52.8,94,80,62,28.69,28.53,9,2,18,0.00
2014-7-27,81.8,72.5,65.0,70.8,65.8,62.3,93,81,56,28.53,28.34,7,2,12,0.52
2014-7-28,69.5,61.8,56.6,64.5,60.2,55.2,95,94,84,28.52,28.22,8,2,20,2.37
2014-7-29,65.1,58.8,52.4,58.3,54.9,50.5,95,87,70,28.69,28.51,3,0,8,0.00
2014-7-30,70.0,59.1,51.7,61.3,55.5,50.0,95,88,71,28.72,28.65,11,3,17,0.54
2014-7-31,71.7,62.3,54.7,63.1,58.3,53.3,95,87,67,28.81,28.69,9,2,15,0.05
2014-8-1,79.0,68.7,57.6,69.6,62.5,55.6,94,82,57,28.86,28.81,8,2,12,0.00
2014-8-2,79.6,68.9,62.4,67.9,64.1,60.3,94,86,65,28.86,28.75,6,1,13,0.26
2014-8-3,75.5,65.1,59.2,69.3,62.8,57.8,95,92,79,28.81,28.75,4,0,9,0.71
2014-8-4,76.4,67.4,59.9,68.0,63.4,58.5,95,88,66,28.81,28.74,4,0,9,0.01
2014-8-5,76.2,66.5,60.1,69.2,63.3,58.4,95,90,75,28.77,28.68,6,0,10,0.24
2014-8-6,72.3,64.5,57.1,64.5,59.2,54.3,95,84,57,28.69,28.64,5,1,12,0.00
2014-8-7,72.1,62.4,53.4,61.4,56.3,51.7,95,82,56,28.77,28.67,5,1,14,0.00
2014-8-8,73.0,61.9,52.3,63.3,56.8,50.8,95,84,64,28.85,28.77,3,0,10,0.00
2014-8-9,76.9,63.5,51.1,62.6,56.8,49.7,95,80,56,28.87,28.82,3,0,10,0.00
2014-8-10,80.0,66.9,53.6,65.4,59.9,51.9,95,80,56,28.87,28.79,3,0,8,0.00
2014-8-11,78.7,70.3,61.3,66.7,61.4,57.8,91,74,60,28.81,28.68,10,3,18,0.00
2014-8-12,68.4,65.5,62.2,65.4,62.0,57.1,95,89,68,28.68,28.48,13,8,26,0.77
2014-8-13,64.5,64.0,63.8,62.7,62.5,62.2,95,95,94,28.48,28.43,7,4,13,0.46
2014-8-14,65.6,58.1,53.6,53.6,52.4,50.5,93,82,64,28.60,28.55,4,1,12,0.01
2014-8-15,66.3,58.6,51.9,55.2,52.2,49.8,93,80,59,28.65,28.57,4,1,20,0.02
2014-8-16,56.1,55.9,55.6,51.7,51.5,51.2,85,85,85,28.65,28.64,0,0,0,0.00
2014-8-18,68.8,62.7,54.4,58.4,56.2,52.4,93,80,64,28.66,28.58,3,0,9,0.00
2014-8-19,76.2,64.3,49.6,67.9,59.7,47.9,95,86,72,28.61,28.55,8,1,14,0.00
2014-8-20,72.8,66.9,64.3,69.6,65.1,62.5,95,94,89,28.68,28.59,7,1,13,1.22
2014-8-21,67.8,66.2,64.9,66.3,64.6,63.3,95,95,94,28.70,28.65,6,1,8,0.14
2014-8-23,66.8,64.7,60.8,64.0,62.2,59.4,95,92,87,28.84,28.76,6,2,12,0.00
2014-8-24,75.9,66.2,56.7,65.2,60.9,55.1,95,84,60,28.89,28.83,4,0,8,0.00
2014-8-25,70.9,61.3,56.2,64.1,58.9,54.5,95,92,79,28.92,28.86,2,0,5,0.00
2014-9-1,71.6,71.3,70.6,69.4,69.0,68.5,93,92,92,28.62,28.60,2,1,6,0.00
2014-9-2,81.1,71.9,63.6,72.9,68.5,62.1,95,89,72,28.62,28.48,8,2,17,1.08
2014-9-3,75.1,67.5,62.9,64.4,62.2,59.2,95,84,63,28.82,28.60,3,0,9,0.00
2014-9-4,80.5,70.2,61.9,70.8,64.7,58.5,92,83,60,28.84,28.77,8,2,15,0.00
2014-9-5,83.9,74.7,67.1,74.5,69.7,65.0,94,85,68,28.84,28.65,12,3,22,0.00
2014-9-6,74.0,66.1,60.1,70.1,63.5,58.1,94,91,84,28.73,28.58,7,1,13,0.02
2014-9-7,69.6,59.8,51.1,58.6,54.3,48.8,95,83,61,28.92,28.74,2,0,9,0.00
2014-9-8,72.5,60.3,47.5,60.5,53.6,45.7,94,80,59,29.00,28.92,7,2,15,0.00
2014-9-9,60.0,57.5,56.2,55.5,54.4,53.9,92,89,85,28.95,28.94,3,1,9,0.00
2014-9-25,66.2,59.9,50.8,56.7,53.8,49.1,94,81,66,29.12,28.97,4,1,11,0.00
2014-9-26,69.9,57.8,46.4,61.2,53.9,45.0,96,87,72,29.01,28.94,4,0,10,0.00
2014-9-27,74.2,60.9,49.6,62.2,56.1,48.2,96,85,63,28.99,28.90,3,0,7,0.00
2014-9-28,77.2,63.1,51.9,63.7,57.7,50.5,95,84,57,28.90,28.74,2,0,6,0.01
2014-9-29,75.9,63.6,53.9,63.6,58.2,52.5,95,84,61,28.74,28.59,3,0,11,0.00
2014-9-30,74.7,63.8,56.5,62.6,59.0,54.8,95,85,61,28.68,28.56,7,1,14,0.06
2014-10-1,65.7,58.5,55.4,62.5,57.1,54.0,95,95,89,28.77,28.67,3,0,5,0.00
2014-10-27,52.8,51.8,50.0,42.2,41.7,41.0,71,68,66,28.61,28.59,5,3,11,0.00
2014-10-28,73.9,61.7,51.7,60.0,52.2,41.0,94,72,56,28.60,28.47,18,5,27,0.22
2014-10-29,60.9,51.3,44.7,59.2,47.3,42.5,95,86,79,28.64,28.52,5,1,13,0.12
2014-10-30,44.8,42.6,37.0,42.9,39.3,34.6,93,88,80,28.72,28.63,3,0,10,0.02
2014-10-31,47.1,44.8,41.1,39.9,38.1,36.3,91,77,68,28.67,28.59,6,2,10,0.00
2014-11-1,42.3,38.1,35.0,38.3,35.8,33.2,95,91,81,28.71,28.60,7,4,18,0.05
2014-11-2,38.0,35.2,33.5,33.2,29.6,27.0,93,80,68,28.81,28.70,10,5,24,0.00
2014-11-3,55.3,46.3,35.3,35.7,31.2,26.6,81,58,36,28.83,28.74,5,2,14,0.00
2014-11-4,60.8,55.4,47.7,44.3,36.8,31.8,70,50,34,28.77,28.58,13,6,23,0.00
2014-11-5,60.0,50.0,38.1,49.7,40.7,34.6,91,72,39,28.81,28.59,12,3,22,0.01
2014-11-6,47.2,41.6,37.3,41.7,39.3,35.2,95,91,77,28.78,28.35,7,1,12,0.45
2014-11-7,39.1,34.9,32.0,37.8,33.5,28.8,96,94,86,28.62,28.36,7,2,16,0.31
2014-11-8,42.1,36.8,30.8,34.7,31.1,27.2,91,80,69,28.64,28.43,12,5,19,0.08
2014-11-9,43.4,40.4,37.4,37.9,35.1,32.3,90,81,72,28.63,28.45,7,2,15,0.00
2014-11-10,55.2,47.3,38.6,42.3,38.2,33.1,83,71,59,28.76,28.62,13,4,23,0.00
2014-11-11,61.1,52.2,45.4,51.0,44.1,39.3,91,74,58,28.66,28.49,15,9,23,0.00
2014-11-12,55.4,44.2,33.9,52.8,39.3,27.4,94,83,68,28.80,28.45,10,4,17,0.02
2014-11-13,35.0,32.0,28.5,29.9,27.9,25.8,95,85,74,28.79,28.67,3,0,9,0.00
2014-11-14,34.5,28.7,20.7,28.4,24.7,18.2,93,85,75,28.83,28.67,6,2,19,0.09
2014-11-15,36.4,30.5,23.9,27.7,25.3,22.1,94,82,62,28.97,28.83,7,2,12,0.04
2014-11-16,36.6,32.8,28.8,30.0,26.5,23.3,88,77,68,28.91,28.63,13,7,20,0.00
2014-11-17,36.3,33.7,29.2,35.1,32.0,23.5,96,93,74,28.63,28.15,7,3,14,0.59
2014-11-18,29.0,21.0,18.3,22.7,12.9,9.7,89,71,60,28.61,28.29,10,6,24,0.00
2014-11-19,25.6,20.7,14.7,19.4,12.9,9.9,91,72,59,28.80,28.48,16,10,26,0.00
2014-11-20,29.4,25.1,20.0,24.0,21.1,17.5,94,85,65,28.63,28.45,15,4,23,0.00
2014-11-21,25.9,21.2,10.7,21.9,16.6,6.8,92,82,71,29.07,28.63,6,2,14,0.00
2014-11-22,41.7,31.2,18.7,39.5,24.8,13.3,92,77,55,29.03,28.70,14,9,25,0.12
2014-11-23,48.8,44.8,40.6,43.3,40.2,37.3,94,84,66,28.77,28.46,11,5,18,0.05
2014-11-24,65.5,57.7,47.9,57.5,51.3,38.5,95,80,56,28.46,28.05,22,13,37,0.13
2014-11-25,53.9,42.5,33.1,39.0,32.5,28.4,90,68,54,28.85,28.36,11,5,24,0.00
2014-11-26,33.2,30.9,26.2,29.9,27.7,25.0,95,88,79,28.87,28.62,3,0,11,0.00
2014-11-27,28.6,26.5,20.4,27.4,25.3,18.9,95,95,94,28.71,28.63,2,0,8,0.04
2014-11-28,26.3,23.0,16.8,25.1,19.9,13.6,95,88,78,28.86,28.70,6,2,14,0.00
2014-11-29,33.2,25.4,15.9,28.9,21.4,12.5,88,85,83,28.86,28.62,19,8,26,0.00
2014-11-30,48.2,41.4,33.3,45.3,37.4,28.8,90,85,83,28.63,28.57,20,12,31,0.02
2014-12-1,49.9,37.1,26.7,48.2,33.4,20.4,95,86,75,29.20,28.59,10,5,18,0.05
2014-12-2,36.7,28.5,20.0,34.9,24.1,16.3,95,84,68,29.25,28.78,21,6,31,0.04
2014-12-3,41.2,37.2,32.0,38.8,35.1,28.7,95,92,83,28.82,28.58,19,7,33,0.05
2014-12-4,34.1,28.8,22.9,29.9,23.2,20.5,92,80,68,29.13,28.82,5,2,16,0.01
2014-12-5,36.5,31.0,22.5,34.8,27.5,20.4,95,87,78,29.14,28.89,16,8,24,0.12
2014-12-6,36.7,34.7,30.8,35.7,33.5,29.5,96,95,95,29.08,28.82,9,3,16,0.57
2014-12-7,30.9,25.0,19.3,29.5,19.7,15.1,95,81,60,29.32,29.08,8,3,18,0.00
2014-12-8,29.6,25.1,18.8,26.8,19.3,13.9,91,79,55,29.25,28.91,18,6,29,0.00
2014-12-9,35.5,32.6,29.2,33.4,30.9,26.9,95,93,91,28.91,28.60,10,3,14,0.01
2014-12-10,32.4,28.7,26.5,31.1,27.6,25.5,96,96,95,28.60,28.33,10,7,19,0.00
2014-12-11,27.4,24.3,22.7,26.4,23.2,21.5,96,95,95,28.54,28.31,5,2,15,0.00
2014-12-12,28.4,25.6,22.2,27.4,24.4,21.0,96,95,95,28.72,28.53,6,3,13,0.00
2014-12-13,32.8,30.2,26.8,31.8,29.2,25.8,96,96,96,28.71,28.59,5,2,16,0.04
2014-12-14,35.5,33.5,31.2,34.5,32.5,30.2,96,96,96,28.70,28.57,4,1,11,0.16
2014-12-15,34.6,33.6,32.1,33.8,32.6,31.1,97,96,96,28.76,28.67,9,1,14,0.02
2014-12-16,40.2,37.3,32.1,38.6,35.9,31.1,97,95,93,28.67,28.45,14,8,21,0.07
2014-12-17,39.1,35.6,30.4,38.1,34.4,28.9,96,95,94,28.59,28.46,6,2,19,0.23
2014-12-18,30.6,29.5,27.3,29.1,27.9,26.1,95,93,90,28.70,28.58,6,3,14,0.00
2014-12-19,27.3,24.6,22.7,26.1,23.2,21.5,95,94,93,28.87,28.66,5,2,14,0.00
2014-12-20,28.4,26.5,25.6,26.4,24.6,23.7,94,92,89,28.92,28.83,2,0,7,0.00
2014-12-21,31.2,27.9,25.6,27.3,24.8,23.6,93,88,80,28.97,28.89,4,0,7,0.01
2014-12-22,35.3,31.3,26.9,33.6,28.3,23.5,95,89,82,28.95,28.75,11,4,18,0.03
2014-12-23,43.5,39.6,34.9,42.2,38.3,33.6,96,95,95,28.76,28.61,8,5,20,0.10
2014-12-24,55.1,48.0,43.4,53.4,46.7,42.1,96,95,93,28.61,28.00,18,9,23,0.16
2014-12-25,55.7,42.0,37.4,53.7,37.3,32.7,94,83,70,28.78,28.02,18,6,32,0.02
2014-12-26,42.8,37.7,34.4,34.3,32.3,29.8,85,81,70,28.90,28.77,8,2,14,0.00
2014-12-27,50.1,43.1,32.8,42.1,37.7,29.4,90,82,73,28.87,28.57,13,5,22,0.00
2014-12-28,48.1,37.3,31.2,42.4,34.2,27.4,95,89,71,28.75,28.51,9,3,14,0.32
2014-12-29,31.3,27.0,23.6,28.0,23.7,19.6,92,87,81,28.91,28.75,6,1,11,0.00
2014-12-30,25.4,20.2,17.3,22.0,17.2,13.3,93,88,78,29.05,28.90,6,1,11,0.01
2014-12-31,22.4,19.1,16.8,16.6,11.2,8.9,92,71,61,28.95,28.64,12,4,22,0.00
2015-1-1,32.0,26.0,19.8,21.3,15.4,10.6,74,64,51,28.64,28.47,14,7,25,0.00
2015-1-2,31.2,28.3,22.1,25.3,22.9,18.6,87,80,66,29.05,28.60,6,2,17,0.00